createdAt,value
2022-11-01T00:00:10.856Z,49.8
2022-11-01T00:05:10.854Z,56.7
2022-11-01T00:10:10.877Z,61.3
2022-11-01T00:15:11.077Z,61.3
2022-11-01T00:20:10.913Z,61.3
2022-11-01T00:25:10.851Z,61.3
2022-11-01T00:30:10.864Z,37.7
2022-11-01T00:35:10.898Z,30.7
2022-11-01T00:40:10.964Z,27.7
2022-11-01T00:45:10.894Z,27.7
2022-11-01T00:50:10.848Z,27.7
2022-11-01T00:55:10.854Z,27.7
2022-11-01T01:00:10.835Z,30.4
2022-11-01T01:05:10.902Z,33.3
2022-11-01T01:10:10.894Z,33.3
2022-11-01T01:15:11.048Z,35.3
2022-11-01T01:20:33.378Z,36.5
2022-11-01T01:25:12.364Z,36.7
2022-11-01T01:30:11.206Z,38.1
2022-11-01T01:35:11.588Z,40.9
2022-11-01T01:40:11.009Z,47.2
2022-11-01T01:45:11.069Z,47.8
2022-11-01T01:50:11.015Z,56.4
2022-11-01T01:55:10.987Z,56.4
2022-11-01T02:00:10.863Z,56.4
2022-11-01T02:05:10.873Z,56.4
2022-11-01T02:10:10.911Z,48
2022-11-01T02:15:10.879Z,42.4
2022-11-01T02:20:10.896Z,38.3
2022-11-01T02:25:11.065Z,38.3
2022-11-01T02:30:10.994Z,38
2022-11-01T02:35:10.919Z,38
2022-11-01T02:40:10.904Z,38
2022-11-01T02:45:10.970Z,39
2022-11-01T02:50:10.957Z,42.6
2022-11-01T02:55:10.885Z,49.4
2022-11-01T03:00:10.946Z,49.4
2022-11-01T03:05:10.903Z,50.8
2022-11-01T03:10:10.891Z,50.8
2022-11-01T03:15:11.026Z,49.4
2022-11-01T03:20:10.907Z,45.3
2022-11-01T03:25:10.945Z,45
2022-11-01T03:30:27.164Z,44.9
2022-11-01T03:35:10.904Z,44.9
2022-11-01T03:40:10.968Z,38.8
2022-11-01T03:45:11.108Z,38.8
2022-11-01T03:50:10.941Z,38.8
2022-11-01T03:55:10.984Z,38.8
2022-11-01T04:00:10.951Z,44.9
2022-11-01T04:05:10.969Z,45.2
2022-11-01T04:10:10.952Z,54.2
2022-11-01T04:15:11.110Z,61.3
2022-11-01T04:20:10.887Z,61.5
2022-11-01T04:25:10.909Z,63.9
2022-11-01T04:35:10.958Z,72.1
2022-11-01T04:40:10.877Z,73.6
2022-11-01T04:45:10.903Z,74.5
2022-11-01T04:50:10.919Z,74.5
2022-11-01T04:55:10.941Z,74.5
2022-11-01T05:00:10.925Z,72.1
2022-11-01T05:05:10.876Z,71.4
2022-11-01T05:10:10.939Z,66.8
2022-11-01T05:15:11.071Z,66.4
2022-11-01T05:20:14.883Z,66.2
2022-11-01T05:25:10.926Z,66.2
2022-11-01T05:30:13.280Z,58.3
2022-11-01T05:35:11.078Z,53.8
2022-11-01T05:40:10.937Z,53.4
2022-11-01T05:45:11.051Z,53.3
2022-11-01T05:50:10.960Z,51
2022-11-01T05:55:10.907Z,50.3
2022-11-01T06:00:10.988Z,49.5
2022-11-01T06:05:10.882Z,46.6
2022-11-01T06:10:10.891Z,45.2
2022-11-01T06:15:11.089Z,39.8
2022-11-01T06:20:11.037Z,39
2022-11-01T06:25:10.926Z,38
2022-11-01T06:30:11.066Z,35.9
2022-11-01T06:35:10.938Z,35.1
2022-11-01T06:40:10.944Z,35
2022-11-01T06:45:10.936Z,33.7
2022-11-01T06:50:10.942Z,32.8
2022-11-01T06:55:10.973Z,31.5
2022-11-01T07:00:15.588Z,28.7
2022-11-01T07:05:10.957Z,27.4
2022-11-01T07:10:10.905Z,26.4
2022-11-01T07:15:10.969Z,26.4
2022-11-01T07:20:10.941Z,24.4
2022-11-01T07:25:10.947Z,24.4
2022-11-01T07:30:11.220Z,23.3
2022-11-01T07:35:10.967Z,22.6
2022-11-01T07:40:11.067Z,21
2022-11-01T07:45:14.011Z,20.5
2022-11-01T07:50:10.990Z,18.9
2022-11-01T07:55:12.475Z,18
2022-11-01T08:00:10.927Z,17.4
2022-11-01T08:05:11.000Z,16.3
2022-11-01T08:10:10.999Z,16
2022-11-01T08:15:11.166Z,16
2022-11-01T08:20:10.997Z,16
2022-11-01T08:25:11.057Z,16
2022-11-01T08:30:11.158Z,14.7
2022-11-01T08:35:10.957Z,14.2
2022-11-01T08:40:10.981Z,14
2022-11-01T08:45:11.094Z,13.9
2022-11-01T08:50:20.529Z,13.5
2022-11-01T08:55:10.969Z,13.5
2022-11-01T09:00:19.597Z,13.5
2022-11-01T09:05:11.298Z,13.4
2022-11-01T09:10:20.923Z,13.4
2022-11-01T09:15:11.146Z,12.3
2022-11-01T09:20:10.955Z,10.3
2022-11-01T09:25:11.005Z,10.3
2022-11-01T09:30:11.003Z,9.5
2022-11-01T09:35:21.446Z,9.5
2022-11-01T09:40:11.006Z,10.2
2022-11-01T09:45:16.581Z,10.2
2022-11-01T09:50:11.120Z,10.2
2022-11-01T10:15:26.133Z,7.7
2022-11-01T10:27:36.283Z,8.6
2022-11-01T10:30:24.781Z,11.6
2022-11-01T10:35:11.312Z,9.5
2022-11-01T10:40:19.312Z,9.05
2022-11-01T10:45:11.649Z,8.6
2022-11-01T10:50:20.305Z,7.8
2022-11-01T10:55:58.520Z,7.1
2022-11-01T11:00:11.089Z,7.1
2022-11-01T11:05:11.085Z,7.1
2022-11-01T11:10:11.020Z,7
2022-11-01T11:15:11.143Z,7
2022-11-01T11:20:11.097Z,6.8
2022-11-01T11:25:11.038Z,7.1
2022-11-01T11:30:11.109Z,6.5
2022-11-01T11:35:11.079Z,6.5
2022-11-01T11:40:41.608Z,5.9
2022-11-01T11:45:11.204Z,5.9
2022-11-01T11:50:18.813Z,5.9
2022-11-01T11:55:14.558Z,5.9
2022-11-01T12:00:18.028Z,5.5
2022-11-01T12:05:11.065Z,5.5
2022-11-01T12:10:11.164Z,4.8
2022-11-01T12:15:11.138Z,4.3
2022-11-01T12:20:11.001Z,4.3
2022-11-01T12:25:11.055Z,4.3
2022-11-01T15:15:11.249Z,3.6
2022-11-01T15:20:11.084Z,5.85
2022-11-01T15:25:11.098Z,6.5
2022-11-01T15:30:11.134Z,7.3
2022-11-01T15:35:11.032Z,6.5
2022-11-01T15:40:11.069Z,5.85
2022-11-01T15:45:11.273Z,6.5
2022-11-01T15:50:11.109Z,7.2
2022-11-01T15:55:11.028Z,7.2
2022-11-01T16:00:11.054Z,7.2
2022-11-01T16:05:11.171Z,6.5
2022-11-01T16:10:11.191Z,7.2
2022-11-01T16:15:11.244Z,8.5
2022-11-01T16:20:14.446Z,8.5
2022-11-01T16:25:14.438Z,8.5
2022-11-01T16:30:14.406Z,8.5
2022-11-01T16:35:14.511Z,8.6
2022-11-01T16:40:14.573Z,9.1
2022-11-01T16:45:14.426Z,12.8
2022-11-01T16:50:14.513Z,19
2022-11-01T16:55:14.542Z,20.5
2022-11-01T17:00:14.469Z,25.1
2022-11-01T17:05:14.393Z,27.9
2022-11-01T17:10:15.676Z,29.1
2022-11-01T17:15:14.488Z,31.2
2022-11-01T17:20:14.386Z,32.1
2022-11-01T17:25:14.374Z,32.7
2022-11-01T17:30:14.366Z,39.6
2022-11-01T17:35:14.425Z,39.9
2022-11-01T17:40:14.386Z,40.1
2022-11-01T17:45:14.319Z,41.8
2022-11-01T17:50:14.384Z,41.8
2022-11-01T17:55:14.376Z,60.2
2022-11-01T18:00:14.332Z,88.9
2022-11-01T18:05:14.350Z,88.9
2022-11-01T18:10:14.463Z,88.9
2022-11-01T18:15:14.493Z,88.9
2022-11-01T18:20:14.398Z,55.4
2022-11-01T18:25:14.384Z,51.7
2022-11-01T18:30:14.701Z,51.7
2022-11-01T18:40:14.393Z,47.7
2022-11-01T18:45:14.418Z,45.7
2022-11-01T18:50:17.467Z,44.4
2022-11-01T18:55:14.372Z,47.7
2022-11-01T19:00:14.340Z,47.7
2022-11-01T19:05:14.409Z,43.8
2022-11-01T19:10:17.688Z,43
2022-11-01T19:15:14.394Z,43
2022-11-01T19:20:14.562Z,43.8
2022-11-01T19:25:14.354Z,42
2022-11-01T19:30:14.573Z,36.8
2022-11-01T19:35:21.831Z,31.7
2022-11-01T19:40:14.586Z,31.7
2022-11-01T19:45:14.402Z,36.8
2022-11-01T19:50:14.501Z,42
2022-11-01T19:55:14.496Z,42
2022-11-01T20:00:14.417Z,42
2022-11-01T20:05:14.482Z,42
2022-11-01T20:10:16.696Z,42
2022-11-01T20:15:14.365Z,28.9
2022-11-01T20:20:14.586Z,27.9
2022-11-01T20:25:14.433Z,24
2022-11-01T20:30:14.529Z,24
2022-11-01T20:35:14.405Z,26.7
2022-11-01T20:40:14.415Z,26.7
2022-11-01T20:45:14.490Z,27.9
2022-11-01T20:50:14.449Z,27.5
2022-11-01T20:55:14.452Z,27.5
2022-11-01T21:00:14.402Z,27.5
2022-11-01T21:05:14.372Z,27.3
2022-11-01T21:10:17.032Z,27.3
2022-11-01T21:15:14.390Z,24.9
2022-11-01T21:20:14.429Z,21.8
2022-11-01T21:25:14.393Z,21.8
2022-11-01T21:30:14.377Z,21.8
2022-11-01T21:35:15.440Z,21.8
2022-11-01T21:40:15.453Z,34.2
2022-11-01T21:45:14.375Z,38.4
2022-11-01T21:50:14.415Z,38.4
2022-11-01T21:55:14.421Z,38.4
2022-11-01T22:00:14.376Z,38.3
2022-11-01T22:05:14.407Z,34.7
2022-11-01T22:10:14.496Z,34.7
2022-11-01T22:15:15.995Z,32.8
2022-11-01T22:20:14.518Z,26.8
2022-11-01T22:25:14.435Z,21.8
2022-11-01T22:30:14.380Z,20.2
2022-11-01T22:35:14.511Z,19.7
2022-11-01T22:40:14.577Z,19.5
2022-11-01T22:45:14.443Z,16.6
2022-11-01T22:50:14.509Z,16.6
2022-11-01T22:55:14.419Z,16.6
2022-11-01T23:00:50.576Z,16.6
2022-11-01T23:05:14.411Z,17.8
2022-11-01T23:10:29.729Z,17.8
2022-11-01T23:15:14.419Z,17.8
2022-11-01T23:20:14.807Z,17.8
2022-11-01T23:25:14.535Z,17.8
2022-11-01T23:30:14.546Z,16.4
2022-11-01T23:35:14.488Z,16.4
2022-11-01T23:40:14.511Z,15.5
2022-11-01T23:45:14.459Z,15.5
2022-11-01T23:50:14.483Z,15.2
2022-11-01T23:55:14.518Z,15.1
